sensor_id;sensor_type;location;lat;lon;timestamp;pressure;altitude;pressure_sealevel;temperature;humidity
44131;BME280;29792;48.726;9.248;2023-04-01T00:01:14;95600.63;;;8.15;100.00
44131;BME280;29792;48.726;9.248;2023-04-01T00:03:39;95606.38;;;8.17;100.00
44131;BME280;29792;48.726;9.248;2023-04-01T00:06:05;95602.91;;;8.18;100.00
44131;BME280;29792;48.726;9.248;2023-04-01T00:08:31;95602.59;;;8.21;100.00
44131;BME280;29792;48.726;9.248;2023-04-01T00:10:57;95597.22;;;8.24;100.00
44131;BME280;29792;48.726;9.248;2023-04-01T00:13:24;95598.03;;;8.25;100.00
44131;BME280;29792;48.726;9.248;2023-04-01T00:15:51;95600.13;;;8.29;100.00
44131;BME280;29792;48.726;9.248;2023-04-01T00:18:16;95593.59;;;8.27;100.00
44131;BME280;29792;48.726;9.248;2023-04-01T00:20:46;95600.81;;;8.31;100.00
44131;BME280;29792;48.726;9.248;2023-04-01T00:23:12;95589.81;;;8.31;100.00
44131;BME280;29792;48.726;9.248;2023-04-01T00:25:38;95593.28;;;8.30;100.00
44131;BME280;29792;48.726;9.248;2023-04-01T00:28:03;95596.91;;;8.27;100.00
44131;BME280;29792;48.726;9.248;2023-04-01T00:30:28;95582.56;;;8.26;100.00
44131;BME280;29792;48.726;9.248;2023-04-01T00:32:54;95590.50;;;8.23;100.00
44131;BME280;29792;48.726;9.248;2023-04-01T00:35:19;95584.59;;;8.23;100.00
44131;BME280;29792;48.726;9.248;2023-04-01T00:37:44;95591.44;;;8.22;100.00
44131;BME280;29792;48.726;9.248;2023-04-01T00:42:50;95587.16;;;8.23;100.00
44131;BME280;29792;48.726;9.248;2023-04-01T00:45:35;95594.66;;;8.24;100.00
44131;BME280;29792;48.726;9.248;2023-04-01T00:48:05;95592.78;;;8.26;100.00
44131;BME280;29792;48.726;9.248;2023-04-01T00:50:33;95594.53;;;8.26;100.00
44131;BME280;29792;48.726;9.248;2023-04-01T00:53:01;95599.47;;;8.27;100.00
44131;BME280;29792;48.726;9.248;2023-04-01T00:55:30;95605.38;;;8.28;100.00
44131;BME280;29792;48.726;9.248;2023-04-01T00:57:58;95598.38;;;8.30;100.00
44131;BME280;29792;48.726;9.248;2023-04-01T01:00:25;95603.47;;;8.30;100.00
44131;BME280;29792;48.726;9.248;2023-04-01T01:02:51;95602.56;;;8.31;100.00
44131;BME280;29792;48.726;9.248;2023-04-01T01:05:18;95600.69;;;8.33;100.00
44131;BME280;29792;48.726;9.248;2023-04-01T01:07:56;95610.75;;;8.34;100.00
44131;BME280;29792;48.726;9.248;2023-04-01T01:10:32;95597.19;;;8.34;100.00
44131;BME280;29792;48.726;9.248;2023-04-01T01:13:11;95597.88;;;8.26;100.00
44131;BME280;29792;48.726;9.248;2023-04-01T01:15:58;95603.97;;;8.16;100.00
44131;BME280;29792;48.726;9.248;2023-04-01T01:21:15;95594.84;;;8.13;100.00
44131;BME280;29792;48.726;9.248;2023-04-01T01:24:00;95594.19;;;8.11;100.00
44131;BME280;29792;48.726;9.248;2023-04-01T01:26:57;95595.00;;;8.12;100.00
44131;BME280;29792;48.726;9.248;2023-04-01T01:29:59;95586.69;;;8.10;100.00
44131;BME280;29792;48.726;9.248;2023-04-01T01:33:17;95583.03;;;8.12;100.00
44131;BME280;29792;48.726;9.248;2023-04-01T01:35:37;95594.19;;;8.11;100.00
44131;BME280;29792;48.726;9.248;2023-04-01T01:38:07;95588.13;;;8.12;100.00
44131;BME280;29792;48.726;9.248;2023-04-01T01:40:35;95586.84;;;8.08;100.00
44131;BME280;29792;48.726;9.248;2023-04-01T01:43:08;95583.63;;;8.06;100.00
44131;BME280;29792;48.726;9.248;2023-04-01T01:45:36;95589.66;;;8.05;100.00
44131;BME280;29792;48.726;9.248;2023-04-01T01:48:06;95592.88;;;8.07;100.00
44131;BME280;29792;48.726;9.248;2023-04-01T01:50:33;95591.13;;;8.08;100.00
44131;BME280;29792;48.726;9.248;2023-04-01T01:53:05;95591.28;;;8.06;100.00
44131;BME280;29792;48.726;9.248;2023-04-01T01:55:34;95586.44;;;8.03;100.00
44131;BME280;29792;48.726;9.248;2023-04-01T01:58:33;95585.66;;;8.02;100.00
44131;BME280;29792;48.726;9.248;2023-04-01T02:01:07;95587.41;;;8.02;100.00
44131;BME280;29792;48.726;9.248;2023-04-01T02:03:35;95581.66;;;8.00;100.00
44131;BME280;29792;48.726;9.248;2023-04-01T02:06:04;95585.13;;;7.99;100.00
44131;BME280;29792;48.726;9.248;2023-04-01T02:08:37;95584.34;;;7.98;100.00
44131;BME280;29792;48.726;9.248;2023-04-01T02:11:07;95581.91;;;7.97;100.00
44131;BME280;29792;48.726;9.248;2023-04-01T02:13:43;95591.19;;;7.98;100.00
44131;BME280;29792;48.726;9.248;2023-04-01T02:16:15;95582.72;;;7.97;100.00
44131;BME280;29792;48.726;9.248;2023-04-01T02:18:42;95582.59;;;7.99;100.00
44131;BME280;29792;48.726;9.248;2023-04-01T02:21:10;95588.63;;;7.98;100.00
44131;BME280;29792;48.726;9.248;2023-04-01T02:23:37;95590.50;;;7.96;100.00
44131;BME280;29792;48.726;9.248;2023-04-01T02:26:06;95581.41;;;7.93;100.00
44131;BME280;29792;48.726;9.248;2023-04-01T02:28:33;95584.09;;;7.92;100.00
44131;BME280;29792;48.726;9.248;2023-04-01T02:30:59;95597.41;;;7.86;100.00
44131;BME280;29792;48.726;9.248;2023-04-01T02:33:28;95595.50;;;7.88;100.00
44131;BME280;29792;48.726;9.248;2023-04-01T02:35:53;95603.03;;;7.89;100.00
44131;BME280;29792;48.726;9.248;2023-04-01T02:38:19;95599.00;;;7.87;100.00
44131;BME280;29792;48.726;9.248;2023-04-01T02:40:47;95608.03;;;7.81;100.00
44131;BME280;29792;48.726;9.248;2023-04-01T02:43:13;95601.97;;;7.82;100.00
44131;BME280;29792;48.726;9.248;2023-04-01T02:45:38;95599.31;;;7.84;100.00
44131;BME280;29792;48.726;9.248;2023-04-01T02:48:04;95588.16;;;7.85;100.00
44131;BME280;29792;48.726;9.248;2023-04-01T02:50:30;95603.59;;;7.83;100.00
44131;BME280;29792;48.726;9.248;2023-04-01T02:52:55;95598.63;;;7.82;100.00
44131;BME280;29792;48.726;9.248;2023-04-01T02:55:21;95602.13;;;7.81;100.00
44131;BME280;29792;48.726;9.248;2023-04-01T02:57:46;95593.16;;;7.77;100.00
44131;BME280;29792;48.726;9.248;2023-04-01T03:00:12;95600.28;;;7.73;100.00
44131;BME280;29792;48.726;9.248;2023-04-01T03:02:38;95600.41;;;7.72;100.00
44131;BME280;29792;48.726;9.248;2023-04-01T03:05:04;95595.59;;;7.69;100.00
44131;BME280;29792;48.726;9.248;2023-04-01T03:07:30;95597.34;;;7.68;100.00
44131;BME280;29792;48.726;9.248;2023-04-01T03:09:56;95597.63;;;7.65;100.00
44131;BME280;29792;48.726;9.248;2023-04-01T03:12:21;95589.47;;;7.61;100.00
44131;BME280;29792;48.726;9.248;2023-04-01T03:14:46;95583.69;;;7.59;100.00
44131;BME280;29792;48.726;9.248;2023-04-01T03:17:11;95604.09;;;7.59;100.00
44131;BME280;29792;48.726;9.248;2023-04-01T03:19:37;95588.78;;;7.59;100.00
44131;BME280;29792;48.726;9.248;2023-04-01T03:22:02;95595.78;;;7.57;100.00
44131;BME280;29792;48.726;9.248;2023-04-01T03:24:27;95594.84;;;7.58;100.00
44131;BME280;29792;48.726;9.248;2023-04-01T03:26:52;95587.88;;;7.60;100.00
44131;BME280;29792;48.726;9.248;2023-04-01T03:29:18;95594.84;;;7.58;100.00
44131;BME280;29792;48.726;9.248;2023-04-01T03:31:43;95606.78;;;7.58;100.00
44131;BME280;29792;48.726;9.248;2023-04-01T03:34:09;95596.84;;;7.55;100.00
44131;BME280;29792;48.726;9.248;2023-04-01T03:36:34;95605.97;;;7.57;100.00
44131;BME280;29792;48.726;9.248;2023-04-01T03:38:59;95603.94;;;7.61;100.00
44131;BME280;29792;48.726;9.248;2023-04-01T03:41:24;95595.22;;;7.63;100.00
44131;BME280;29792;48.726;9.248;2023-04-01T03:43:50;95599.38;;;7.64;100.00
44131;BME280;29792;48.726;9.248;2023-04-01T03:46:19;95609.28;;;7.68;100.00
44131;BME280;29792;48.726;9.248;2023-04-01T03:48:44;95596.69;;;7.66;100.00
44131;BME280;29792;48.726;9.248;2023-04-01T03:51:09;95597.63;;;7.65;100.00
44131;BME280;29792;48.726;9.248;2023-04-01T03:53:35;95597.63;;;7.65;100.00
44131;BME280;29792;48.726;9.248;2023-04-01T03:56:05;95600.84;;;7.67;100.00
44131;BME280;29792;48.726;9.248;2023-04-01T03:58:30;95596.53;;;7.68;100.00
44131;BME280;29792;48.726;9.248;2023-04-01T04:00:56;95597.50;;;7.66;100.00
44131;BME280;29792;48.726;9.248;2023-04-01T04:03:22;95591.72;;;7.64;100.00
44131;BME280;29792;48.726;9.248;2023-04-01T04:05:49;95585.31;;;7.60;100.00
44131;BME280;29792;48.726;9.248;2023-04-01T04:08:14;95579.81;;;7.55;100.00
44131;BME280;29792;48.726;9.248;2023-04-01T04:10:40;95581.06;;;7.51;100.00
44131;BME280;29792;48.726;9.248;2023-04-01T04:13:06;95574.78;;;7.46;100.00
44131;BME280;29792;48.726;9.248;2023-04-01T04:15:31;95579.47;;;7.41;100.00
44131;BME280;29792;48.726;9.248;2023-04-01T04:17:56;95578.16;;;7.37;100.00
44131;BME280;29792;48.726;9.248;2023-04-01T04:20:22;95587.81;;;7.33;100.00
44131;BME280;29792;48.726;9.248;2023-04-01T04:22:47;95584.59;;;7.31;100.00
44131;BME280;29792;48.726;9.248;2023-04-01T04:25:12;95579.78;;;7.28;100.00
44131;BME280;29792;48.726;9.248;2023-04-01T04:27:38;95569.84;;;7.25;100.00
44131;BME280;29792;48.726;9.248;2023-04-01T04:30:04;95566.63;;;7.23;100.00
44131;BME280;29792;48.726;9.248;2023-04-01T04:32:30;95569.34;;;7.21;100.00
44131;BME280;29792;48.726;9.248;2023-04-01T04:34:55;95577.13;;;7.20;100.00
44131;BME280;29792;48.726;9.248;2023-04-01T04:37:20;95569.63;;;7.18;100.00
44131;BME280;29792;48.726;9.248;2023-04-01T04:39:46;95577.50;;;7.15;100.00
44131;BME280;29792;48.726;9.248;2023-04-01T04:42:11;95571.63;;;7.15;100.00
44131;BME280;29792;48.726;9.248;2023-04-01T04:44:36;95575.25;;;7.12;100.00
44131;BME280;29792;48.726;9.248;2023-04-01T04:47:02;95577.00;;;7.12;100.00
44131;BME280;29792;48.726;9.248;2023-04-01T04:49:27;95577.00;;;7.12;100.00
44131;BME280;29792;48.726;9.248;2023-04-01T04:51:52;95575.78;;;7.16;100.00
44131;BME280;29792;48.726;9.248;2023-04-01T04:54:17;95575.66;;;7.17;100.00
44131;BME280;29792;48.726;9.248;2023-04-01T04:56:43;95570.28;;;7.20;100.00
44131;BME280;29792;48.726;9.248;2023-04-01T04:59:08;95573.47;;;7.22;100.00
44131;BME280;29792;48.726;9.248;2023-04-01T05:01:33;95575.09;;;7.23;100.00
44131;BME280;29792;48.726;9.248;2023-04-01T05:03:59;95573.34;;;7.24;100.00
44131;BME280;29792;48.726;9.248;2023-04-01T05:06:24;95578.16;;;7.27;100.00
44131;BME280;29792;48.726;9.248;2023-04-01T05:08:50;95574.41;;;7.31;100.00
44131;BME280;29792;48.726;9.248;2023-04-01T05:11:18;95577.63;;;7.33;100.00
44131;BME280;29792;48.726;9.248;2023-04-01T05:13:44;95565.69;;;7.34;100.00
44131;BME280;29792;48.726;9.248;2023-04-01T05:16:12;95566.34;;;7.36;100.00
44131;BME280;29792;48.726;9.248;2023-04-01T05:18:38;95556.03;;;7.37;100.00
44131;BME280;29792;48.726;9.248;2023-04-01T05:21:04;95552.38;;;7.40;100.00
44131;BME280;29792;48.726;9.248;2023-04-01T05:23:31;95552.78;;;7.45;100.00
44131;BME280;29792;48.726;9.248;2023-04-01T05:25:56;95547.41;;;7.48;100.00
44131;BME280;29792;48.726;9.248;2023-04-01T05:28:22;95553.97;;;7.50;100.00
44131;BME280;29792;48.726;9.248;2023-04-01T05:30:47;95551.41;;;7.50;100.00
44131;BME280;29792;48.726;9.248;2023-04-01T05:33:13;95537.44;;;7.54;100.00
44131;BME280;29792;48.726;9.248;2023-04-01T05:35:39;95540.66;;;7.56;100.00
44131;BME280;29792;48.726;9.248;2023-04-01T05:38:04;95545.47;;;7.59;100.00
44131;BME280;29792;48.726;9.248;2023-04-01T05:40:30;95554.44;;;7.63;100.00
44131;BME280;29792;48.726;9.248;2023-04-01T05:42:56;95547.47;;;7.65;100.00
44131;BME280;29792;48.726;9.248;2023-04-01T05:45:22;95551.34;;;7.70;100.00
44131;BME280;29792;48.726;9.248;2023-04-01T05:47:48;95543.41;;;7.73;100.00
44131;BME280;29792;48.726;9.248;2023-04-01T05:50:13;95532.00;;;7.77;100.00
44131;BME280;29792;48.726;9.248;2023-04-01T05:52:38;95530.75;;;7.81;100.00
44131;BME280;29792;48.726;9.248;2023-04-01T05:55:04;95548.97;;;7.86;100.00
44131;BME280;29792;48.726;9.248;2023-04-01T05:57:30;95527.63;;;7.87;100.00
44131;BME280;29792;48.726;9.248;2023-04-01T05:59:56;95528.97;;;7.91;100.00
44131;BME280;29792;48.726;9.248;2023-04-01T06:02:21;95535.22;;;7.96;100.00
44131;BME280;29792;48.726;9.248;2023-04-01T06:04:47;95538.97;;;8.02;100.00
44131;BME280;29792;48.726;9.248;2023-04-01T06:07:14;95535.03;;;8.08;100.00
44131;BME280;29792;48.726;9.248;2023-04-01T06:09:40;95532.56;;;8.16;100.00
44131;BME280;29792;48.726;9.248;2023-04-01T06:14:52;95528.69;;;8.29;100.00
44131;BME280;29792;48.726;9.248;2023-04-01T06:20:03;95522.34;;;8.43;100.00
44131;BME280;29792;48.726;9.248;2023-04-01T06:22:46;95521.75;;;8.49;100.00
44131;BME280;29792;48.726;9.248;2023-04-01T06:25:24;95518.31;;;8.58;100.00
44131;BME280;29792;48.726;9.248;2023-04-01T06:31:33;95518.44;;;8.74;100.00
44131;BME280;29792;48.726;9.248;2023-04-01T06:34:28;95524.84;;;8.78;100.00
44131;BME280;29792;48.726;9.248;2023-04-01T06:37:27;95532.22;;;8.82;100.00
44131;BME280;29792;48.726;9.248;2023-04-01T06:42:56;95540.53;;;8.84;100.00
44131;BME280;29792;48.726;9.248;2023-04-01T06:45:45;95537.81;;;8.85;100.00
44131;BME280;29792;48.726;9.248;2023-04-01T06:48:19;95540.06;;;8.88;100.00
44131;BME280;29792;48.726;9.248;2023-04-01T06:51:07;95532.13;;;8.91;100.00
44131;BME280;29792;48.726;9.248;2023-04-01T06:54:04;95545.53;;;8.93;100.00
44131;BME280;29792;48.726;9.248;2023-04-01T06:56:32;95530.84;;;8.95;100.00
44131;BME280;29792;48.726;9.248;2023-04-01T06:59:12;95536.91;;;8.94;100.00
44131;BME280;29792;48.726;9.248;2023-04-01T07:01:42;95531.66;;;8.96;100.00
44131;BME280;29792;48.726;9.248;2023-04-01T07:04:14;95529.63;;;8.99;100.00
44131;BME280;29792;48.726;9.248;2023-04-01T07:06:48;95540.47;;;9.01;100.00
44131;BME280;29792;48.726;9.248;2023-04-01T07:09:19;95529.16;;;9.04;100.00
44131;BME280;29792;48.726;9.248;2023-04-01T07:11:45;95526.16;;;9.08;100.00
44131;BME280;29792;48.726;9.248;2023-04-01T07:14:20;95528.41;;;9.11;99.60
44131;BME280;29792;48.726;9.248;2023-04-01T07:17:06;95524.91;;;9.12;99.57
44131;BME280;29792;48.726;9.248;2023-04-01T07:19:44;95533.72;;;9.18;99.69
44131;BME280;29792;48.726;9.248;2023-04-01T07:22:22;95543.78;;;9.19;99.44
44131;BME280;29792;48.726;9.248;2023-04-01T07:24:53;95537.44;;;9.24;99.99
44131;BME280;29792;48.726;9.248;2023-04-01T07:27:19;95534.88;;;9.24;99.34
44131;BME280;29792;48.726;9.248;2023-04-01T07:29:44;95535.84;;;9.23;99.17
44131;BME280;29792;48.726;9.248;2023-04-01T07:35:03;95539.81;;;9.25;99.55
44131;BME280;29792;48.726;9.248;2023-04-01T07:43:15;95553.72;;;9.23;99.57
44131;BME280;29792;48.726;9.248;2023-04-01T07:46:03;95551.16;;;9.23;100.00
44131;BME280;29792;48.726;9.248;2023-04-01T07:48:52;95558.03;;;9.22;99.33
44131;BME280;29792;48.726;9.248;2023-04-01T07:54:31;95556.13;;;9.24;99.64
44131;BME280;29792;48.726;9.248;2023-04-01T07:57:05;95561.06;;;9.26;100.00
44131;BME280;29792;48.726;9.248;2023-04-01T08:02:18;95561.56;;;9.29;100.00
44131;BME280;29792;48.726;9.248;2023-04-01T08:07:30;95565.31;;;9.43;100.00
44131;BME280;29792;48.726;9.248;2023-04-01T08:10:22;95558.03;;;9.48;100.00
44131;BME280;29792;48.726;9.248;2023-04-01T08:13:02;95565.50;;;9.49;99.95
44131;BME280;29792;48.726;9.248;2023-04-01T08:15:40;95561.72;;;9.53;100.00
44131;BME280;29792;48.726;9.248;2023-04-01T08:20:54;95566.41;;;9.66;100.00
44131;BME280;29792;48.726;9.248;2023-04-01T08:23:27;95556.34;;;9.65;100.00
44131;BME280;29792;48.726;9.248;2023-04-01T08:26:04;95561.91;;;9.60;100.00
44131;BME280;29792;48.726;9.248;2023-04-01T08:31:30;95578.50;;;9.56;100.00
44131;BME280;29792;48.726;9.248;2023-04-01T08:33:57;95567.97;;;9.59;100.00
44131;BME280;29792;48.726;9.248;2023-04-01T08:36:31;95560.94;;;9.61;100.00
44131;BME280;29792;48.726;9.248;2023-04-01T08:47:36;95574.31;;;9.47;100.00
44131;BME280;29792;48.726;9.248;2023-04-01T08:53:34;95575.16;;;9.30;100.00
44131;BME280;29792;48.726;9.248;2023-04-01T08:56:42;95576.00;;;9.12;100.00
44131;BME280;29792;48.726;9.248;2023-04-01T09:02:13;95574.94;;;8.79;100.00
44131;BME280;29792;48.726;9.248;2023-04-01T09:10:24;95568.09;;;8.62;100.00
44131;BME280;29792;48.726;9.248;2023-04-01T09:21:22;95565.81;;;8.95;100.00
44131;BME280;29792;48.726;9.248;2023-04-01T09:34:53;95575.25;;;9.80;100.00
44131;BME280;29792;48.726;9.248;2023-04-01T09:37:35;95568.28;;;9.98;100.00
44131;BME280;29792;48.726;9.248;2023-04-01T09:40:14;95564.00;;;10.07;100.00
44131;BME280;29792;48.726;9.248;2023-04-01T09:42:49;95590.88;;;10.11;100.00
44131;BME280;29792;48.726;9.248;2023-04-01T09:45:32;95577.13;;;10.04;100.00
44131;BME280;29792;48.726;9.248;2023-04-01T09:48:21;95584.25;;;9.92;100.00
44131;BME280;29792;48.726;9.248;2023-04-01T10:02:20;95601.56;;;9.64;100.00
44131;BME280;29792;48.726;9.248;2023-04-01T10:08:09;95609.19;;;9.56;100.00
44131;BME280;29792;48.726;9.248;2023-04-01T10:11:03;95607.22;;;9.50;100.00
44131;BME280;29792;48.726;9.248;2023-04-01T10:19:30;95597.16;;;9.48;100.00
44131;BME280;29792;48.726;9.248;2023-04-01T10:27:51;95600.91;;;9.62;100.00
44131;BME280;29792;48.726;9.248;2023-04-01T10:30:45;95605.59;;;9.75;100.00
44131;BME280;29792;48.726;9.248;2023-04-01T10:33:57;95616.38;;;9.86;100.00
44131;BME280;29792;48.726;9.248;2023-04-01T10:36:35;95604.09;;;9.98;100.00
44131;BME280;29792;48.726;9.248;2023-04-01T10:39:26;95598.56;;;10.11;100.00
44131;BME280;29792;48.726;9.248;2023-04-01T10:45:13;95613.91;;;10.53;98.77
44131;BME280;29792;48.726;9.248;2023-04-01T10:48:19;95610.44;;;10.70;96.97
44131;BME280;29792;48.726;9.248;2023-04-01T11:02:42;95608.97;;;11.40;91.74
44131;BME280;29792;48.726;9.248;2023-04-01T11:08:50;95613.78;;;11.27;90.33
44131;BME280;29792;48.726;9.248;2023-04-01T11:11:47;95611.56;;;11.08;89.52
44131;BME280;29792;48.726;9.248;2023-04-01T11:22:44;95612.66;;;10.89;91.12
44131;BME280;29792;48.726;9.248;2023-04-01T11:25:24;95614.44;;;10.89;90.44
44131;BME280;29792;48.726;9.248;2023-04-01T11:28:21;95632.06;;;10.92;90.32
44131;BME280;29792;48.726;9.248;2023-04-01T11:33:44;95628.53;;;11.01;91.37
44131;BME280;29792;48.726;9.248;2023-04-01T11:36:20;95614.13;;;11.08;88.82
44131;BME280;29792;48.726;9.248;2023-04-01T11:39:15;95634.47;;;11.09;87.77
44131;BME280;29792;48.726;9.248;2023-04-01T11:42:03;95624.69;;;11.13;88.83
44131;BME280;29792;48.726;9.248;2023-04-01T11:44:40;95628.06;;;11.22;88.85
44131;BME280;29792;48.726;9.248;2023-04-01T11:47:37;95631.41;;;11.22;86.87
44131;BME280;29792;48.726;9.248;2023-04-01T11:50:13;95636.53;;;11.22;88.30
44131;BME280;29792;48.726;9.248;2023-04-01T11:55:42;95633.66;;;11.25;86.22
44131;BME280;29792;48.726;9.248;2023-04-01T12:00:57;95638.16;;;11.23;85.70
44131;BME280;29792;48.726;9.248;2023-04-01T12:07:02;95645.69;;;11.25;86.13
44131;BME280;29792;48.726;9.248;2023-04-01T12:09:57;95646.16;;;11.20;85.26
44131;BME280;29792;48.726;9.248;2023-04-01T12:12:46;95643.28;;;11.07;84.33
44131;BME280;29792;48.726;9.248;2023-04-01T12:15:20;95649.66;;;11.03;85.96
44131;BME280;29792;48.726;9.248;2023-04-01T12:18:05;95651.75;;;10.99;85.38
44131;BME280;29792;48.726;9.248;2023-04-01T12:21:14;95648.69;;;10.96;85.58
44131;BME280;29792;48.726;9.248;2023-04-01T12:35:10;95650.00;;;11.16;86.97
44131;BME280;29792;48.726;9.248;2023-04-01T12:40:27;95661.53;;;11.36;86.63
44131;BME280;29792;48.726;9.248;2023-04-01T13:00:00;95650.50;;;13.08;75.28
44131;BME280;29792;48.726;9.248;2023-04-01T13:07:58;95637.88;;;13.44;77.93
44131;BME280;29792;48.726;9.248;2023-04-01T13:13:09;95657.47;;;13.22;72.29
44131;BME280;29792;48.726;9.248;2023-04-01T13:15:52;95658.34;;;12.84;72.16
44131;BME280;29792;48.726;9.248;2023-04-01T13:23:52;95674.44;;;12.08;75.46
44131;BME280;29792;48.726;9.248;2023-04-01T13:26:27;95670.63;;;11.96;76.31
44131;BME280;29792;48.726;9.248;2023-04-01T13:37:32;95678.34;;;11.55;77.83
44131;BME280;29792;48.726;9.248;2023-04-01T13:43:03;95679.16;;;11.56;79.52
44131;BME280;29792;48.726;9.248;2023-04-01T13:45:55;95697.91;;;11.64;79.25
44131;BME280;29792;48.726;9.248;2023-04-01T13:54:14;95696.28;;;11.63;78.61
44131;BME280;29792;48.726;9.248;2023-04-01T13:56:54;95692.13;;;11.62;78.46
44131;BME280;29792;48.726;9.248;2023-04-01T14:04:53;95689.06;;;12.07;79.09
44131;BME280;29792;48.726;9.248;2023-04-01T14:07:46;95691.25;;;12.18;77.17
44131;BME280;29792;48.726;9.248;2023-04-01T14:10:22;95698.31;;;12.08;76.96
44131;BME280;29792;48.726;9.248;2023-04-01T14:13:00;95697.88;;;12.05;76.88
44131;BME280;29792;48.726;9.248;2023-04-01T14:15:41;95690.66;;;12.00;77.42
44131;BME280;29792;48.726;9.248;2023-04-01T14:21:29;95697.72;;;12.06;77.85
44131;BME280;29792;48.726;9.248;2023-04-01T14:24:08;95703.97;;;12.04;78.88
44131;BME280;29792;48.726;9.248;2023-04-01T14:27:09;95701.91;;;11.99;78.58
44131;BME280;29792;48.726;9.248;2023-04-01T14:29:52;95698.88;;;11.88;78.82
44131;BME280;29792;48.726;9.248;2023-04-01T14:32:38;95701.75;;;11.76;78.57
44131;BME280;29792;48.726;9.248;2023-04-01T14:35:24;95706.56;;;11.63;78.47
44131;BME280;29792;48.726;9.248;2023-04-01T14:46:34;95707.84;;;11.35;80.96
44131;BME280;29792;48.726;9.248;2023-04-01T14:49:21;95708.63;;;11.35;81.71
44131;BME280;29792;48.726;9.248;2023-04-01T14:51:48;95716.50;;;11.34;81.58
44131;BME280;29792;48.726;9.248;2023-04-01T14:54:17;95714.91;;;11.33;81.68
44131;BME280;29792;48.726;9.248;2023-04-01T14:57:09;95712.63;;;11.30;81.23
44131;BME280;29792;48.726;9.248;2023-04-01T14:59:41;95712.31;;;11.25;80.47
44131;BME280;29792;48.726;9.248;2023-04-01T15:10:58;95721.78;;;11.24;80.45
44131;BME280;29792;48.726;9.248;2023-04-01T15:18:56;95729.44;;;11.00;80.30
44131;BME280;29792;48.726;9.248;2023-04-01T15:27:33;95737.09;;;10.92;82.42
44131;BME280;29792;48.726;9.248;2023-04-01T15:30:32;95734.38;;;10.93;82.66
44131;BME280;29792;48.726;9.248;2023-04-01T15:35:41;95745.44;;;10.94;82.66
44131;BME280;29792;48.726;9.248;2023-04-01T15:41:13;95744.78;;;10.92;82.66
44131;BME280;29792;48.726;9.248;2023-04-01T15:43:45;95756.78;;;10.91;82.57
44131;BME280;29792;48.726;9.248;2023-04-01T15:49:31;95749.72;;;10.85;82.60
44131;BME280;29792;48.726;9.248;2023-04-01T15:52:06;95758.66;;;10.81;82.58
44131;BME280;29792;48.726;9.248;2023-04-01T15:55:00;95753.06;;;10.78;83.85
44131;BME280;29792;48.726;9.248;2023-04-01T15:57:40;95761.19;;;10.73;83.96
44131;BME280;29792;48.726;9.248;2023-04-01T16:00:29;95762.47;;;10.69;83.73
44131;BME280;29792;48.726;9.248;2023-04-01T16:06:25;95768.38;;;10.61;83.75
44131;BME280;29792;48.726;9.248;2023-04-01T16:18:08;95776.66;;;10.55;85.58
44131;BME280;29792;48.726;9.248;2023-04-01T16:20:56;95775.03;;;10.54;86.65
44131;BME280;29792;48.726;9.248;2023-04-01T16:23:29;95770.84;;;10.45;86.44
44131;BME280;29792;48.726;9.248;2023-04-01T16:26:06;95771.16;;;10.42;87.83
44131;BME280;29792;48.726;9.248;2023-04-01T16:28:45;95780.41;;;10.35;88.15
44131;BME280;29792;48.726;9.248;2023-04-01T16:31:34;95780.03;;;10.30;89.12
44131;BME280;29792;48.726;9.248;2023-04-01T16:34:20;95777.78;;;10.27;89.63
44131;BME280;29792;48.726;9.248;2023-04-01T16:36:55;95778.88;;;10.24;89.37
44131;BME280;29792;48.726;9.248;2023-04-01T16:39:52;95779.97;;;10.22;89.99
44131;BME280;29792;48.726;9.248;2023-04-01T16:42:31;95781.44;;;10.24;90.32
44131;BME280;29792;48.726;9.248;2023-04-01T16:47:46;95781.00;;;10.29;91.11
44131;BME280;29792;48.726;9.248;2023-04-01T16:50:22;95781.16;;;10.27;91.15
44131;BME280;29792;48.726;9.248;2023-04-01T16:58:43;95784.81;;;10.25;91.60
44131;BME280;29792;48.726;9.248;2023-04-01T17:01:20;95790.22;;;10.22;91.16
44131;BME280;29792;48.726;9.248;2023-04-01T17:03:52;95792.63;;;10.23;91.02
44131;BME280;29792;48.726;9.248;2023-04-01T17:09:05;95795.72;;;10.27;90.57
44131;BME280;29792;48.726;9.248;2023-04-01T17:11:43;95788.69;;;10.29;90.40
44131;BME280;29792;48.726;9.248;2023-04-01T17:19:45;95790.13;;;10.31;89.85
44131;BME280;29792;48.726;9.248;2023-04-01T17:28:03;95807.69;;;10.26;89.92
44131;BME280;29792;48.726;9.248;2023-04-01T17:30:35;95806.09;;;10.25;90.10
44131;BME280;29792;48.726;9.248;2023-04-01T17:33:26;95805.94;;;10.27;89.82
44131;BME280;29792;48.726;9.248;2023-04-01T17:41:34;95817.75;;;10.20;89.66
44131;BME280;29792;48.726;9.248;2023-04-01T17:49:24;95826.63;;;10.16;90.19
44131;BME280;29792;48.726;9.248;2023-04-01T17:52:01;95821.66;;;10.14;90.16
44131;BME280;29792;48.726;9.248;2023-04-01T17:54:47;95824.53;;;10.11;90.29
44131;BME280;29792;48.726;9.248;2023-04-01T17:57:30;95832.34;;;10.10;90.01
44131;BME280;29792;48.726;9.248;2023-04-01T18:03:29;95835.78;;;10.01;91.00
44131;BME280;29792;48.726;9.248;2023-04-01T18:14:31;95857.50;;;9.97;92.69
44131;BME280;29792;48.726;9.248;2023-04-01T18:17:24;95863.44;;;9.97;93.13
44131;BME280;29792;48.726;9.248;2023-04-01T18:20:07;95871.25;;;9.95;93.40
44131;BME280;29792;48.726;9.248;2023-04-01T18:22:47;95873.16;;;9.93;94.47
44131;BME280;29792;48.726;9.248;2023-04-01T18:25:30;95890.53;;;9.90;96.27
44131;BME280;29792;48.726;9.248;2023-04-01T18:30:42;95901.00;;;9.79;99.05
44131;BME280;29792;48.726;9.248;2023-04-01T18:35:54;95910.13;;;9.64;99.84
44131;BME280;29792;48.726;9.248;2023-04-01T18:38:47;95910.03;;;9.55;99.54
44131;BME280;29792;48.726;9.248;2023-04-01T18:41:28;95908.31;;;9.46;97.54
44131;BME280;29792;48.726;9.248;2023-04-01T18:46:52;95907.84;;;9.33;96.33
44131;BME280;29792;48.726;9.248;2023-04-01T18:49:25;95909.59;;;9.33;96.69
44131;BME280;29792;48.726;9.248;2023-04-01T18:51:57;95908.41;;;9.27;96.63
44131;BME280;29792;48.726;9.248;2023-04-01T18:54:31;95912.34;;;9.22;96.47